This is the latest recevied weather packets stored in our database for station/object EA1HEH-13. If no packets are shown the sender has not sent any weather packets the latest 10 day(s).
| Time | Temp. | Humidity | Pressure | Rain* | Wind** | Luminosity | Snow |
|---|---|---|---|---|---|---|---|
| 1777405534 | 18.33° C | 49% | 928.9 hPa | - | - | - | - |
| 1777404934 | 18.33° C | 50% | 928.8 hPa | - | - | - | - |
| 1777404334 | 18.33° C | 50% | 928.7 hPa | - | - | - | - |
| 1777403734 | 18.33° C | 51% | 928.7 hPa | - | - | - | - |
| 1777403134 | 18.33° C | 50% | 928.8 hPa | - | - | - | - |
| 1777397734 | 18.89° C | 54% | 928.5 hPa | - | - | - | - |
| 1777397134 | 18.89° C | 54% | 928.4 hPa | - | - | - | - |
| 1777396534 | 18.89° C | 52% | 928.2 hPa | - | - | - | - |
| 1777394134 | 22.78° C | 41% | 928 hPa | - | - | - | - |
| 1777393534 | 23.89° C | 32% | 928.3 hPa | - | - | - | - |
| 1777392934 | 24.44° C | 24% | 928.3 hPa | - | - | - | - |
| 1777390534 | 24.44° C | 24% | 928.7 hPa | - | - | - | - |
| 1777389934 | 24.44° C | 24% | 928.8 hPa | - | - | - | - |
| 1777389334 | 24.44° C | 24% | 928.9 hPa | - | - | - | - |
| 1777388134 | 24.44° C | 25% | 929.1 hPa | - | - | - | - |
| 1777387534 | 24.44° C | 26% | 929.1 hPa | - | - | - | - |
| 1777386934 | 24.44° C | 26% | 929.2 hPa | - | - | - | - |
| 1777386334 | 23.89° C | 26% | 929.3 hPa | - | - | - | - |
| 1777385734 | 23.89° C | 26% | 929.5 hPa | - | - | - | - |
| 1777385134 | 23.89° C | 26% | 929.6 hPa | - | - | - | - |
| 1777383334 | 23.33° C | 27% | 930.1 hPa | - | - | - | - |
| 1777382134 | 23.33° C | 28% | 930.4 hPa | - | - | - | - |
| 1777381534 | 23.33° C | 28% | 930.5 hPa | - | - | - | - |
| 1777380334 | 22.78° C | 28% | 930.8 hPa | - | - | - | - |
| 1777379734 | 22.78° C | 29% | 930.9 hPa | - | - | - | - |
* Rain since midnight (hover to see other rain measurements)
** Current wind speed in m/s (hover to see current wind gust speed)